Time;durP1;ratioP1;P1;durP2;ratioP2;P2;SDS_P1;SDS_P2;PMS_P1;PMS_P2;Temp;Humidity;BMP_temperature;BMP_pressure;BME280_temperature;BME280_humidity;BME280_pressure;Samples;Min_cycle;Max_cycle;Signal;HPM_P1;HPM_P2
2023/10/09 00:01:46;;;;;;;4.25;1.20;;;7.80;92.70;;;;;;5051382;28;20159;-76
2023/10/09 00:04:13;;;;;;;3.40;1.42;;;7.70;93.00;;;;;;5051161;28;20156;-74
2023/10/09 00:06:41;;;;;;;4.03;1.40;;;7.60;93.60;;;;;;5052886;28;20024;-76
2023/10/09 00:11:48;;;;;;;6.57;1.55;;;7.30;94.10;;;;;;5053238;28;20029;-75
2023/10/09 00:14:15;;;;;;;;;;;7.40;94.20;;;;;;5052133;28;20029;-76
2023/10/09 00:17:00;;;;;;;3.10;1.27;;;7.50;93.50;;;;;;5052797;28;19999;-76
2023/10/09 00:19:32;;;;;;;4.20;1.60;;;7.30;93.80;;;;;;5053009;28;20320;-76
2023/10/09 00:22:04;;;;;;;6.68;1.48;;;7.30;94.20;;;;;;5051233;28;20029;-76
2023/10/09 00:24:32;;;;;;;3.45;1.40;;;7.20;94.70;;;;;;5052799;28;20120;-76
2023/10/09 00:27:14;;;;;;;5.30;1.70;;;7.10;95.10;;;;;;5052761;28;20021;-76
2023/10/09 00:29:44;;;;;;;2.28;1.00;;;7.00;95.50;;;;;;5052862;28;20053;-75
2023/10/09 00:32:19;;;;;;;5.00;1.13;;;7.00;95.90;;;;;;5052560;28;20028;-76
2023/10/09 00:34:44;;;;;;;4.65;1.60;;;7.20;95.60;;;;;;5050558;28;20091;-75
2023/10/09 00:37:16;;;;;;;;;;;7.30;95.00;;;;;;5052600;28;20044;-76
2023/10/09 00:39:48;;;;;;;3.72;1.45;;;7.10;95.00;;;;;;5050573;28;20003;-75
2023/10/09 00:42:15;;;;;;;4.63;1.20;;;7.10;95.30;;;;;;5050868;28;20129;-74
2023/10/09 00:44:48;;;;;;;7.38;1.65;;;7.10;95.20;;;;;;5051881;28;20106;-74
2023/10/09 00:47:33;;;;;;;4.03;1.30;;;7.10;95.20;;;;;;5050462;28;20021;-75
2023/10/09 00:50:15;;;;;;;5.07;1.40;;;7.00;95.60;;;;;;5051479;28;20052;-75
2023/10/09 00:52:49;;;;;;;4.10;1.38;;;7.00;95.70;;;;;;5059948;28;20088;-76
2023/10/09 00:55:20;;;;;;;3.33;1.45;;;6.90;95.90;;;;;;5051255;28;20460;-76
2023/10/09 00:57:59;;;;;;;4.90;1.60;;;6.90;96.50;;;;;;5052626;28;20043;-76
2023/10/09 01:00:45;;;;;;;4.75;1.40;;;6.80;96.70;;;;;;5052409;28;20036;-75
2023/10/09 01:05:57;;;;;;;5.57;1.80;;;7.00;96.30;;;;;;5052315;28;20029;-74
2023/10/09 01:11:23;;;;;;;4.15;1.48;;;7.00;96.80;;;;;;5051743;28;20021;-73
2023/10/09 01:16:17;;;;;;;4.35;1.67;;;7.10;96.60;;;;;;5051662;28;20029;-75
2023/10/09 01:18:50;;;;;;;7.05;1.45;;;7.20;96.60;;;;;;5051687;28;20053;-75
2023/10/09 01:21:17;;;;;;;4.00;1.88;;;7.20;96.40;;;;;;5050620;28;20540;-74
2023/10/09 01:26:26;;;;;;;10.90;2.47;;;7.20;96.10;;;;;;5051597;28;20036;-76
2023/10/09 01:28:57;;;;;;;9.38;1.77;;;7.30;95.80;;;;;;5050483;28;20144;-73
2023/10/09 01:31:25;;;;;;;3.92;1.50;;;7.40;96.00;;;;;;5047760;28;20383;-73
2023/10/09 01:33:53;;;;;;;3.97;1.42;;;7.40;95.60;;;;;;5040504;28;20050;-72
2023/10/09 01:36:31;;;;;;;4.68;1.25;;;7.40;95.90;;;;;;5032244;28;20037;-73
2023/10/09 01:39:01;;;;;;;3.30;1.38;;;7.50;96.10;;;;;;5030408;28;20156;-74
2023/10/09 01:41:27;;;;;;;6.20;1.75;;;7.50;96.20;;;;;;5029289;28;20025;-73
2023/10/09 01:43:56;;;;;;;;;;;7.60;96.30;;;;;;5030522;28;20033;-76
2023/10/09 01:46:22;;;;;;;4.72;1.92;;;7.60;97.00;;;;;;5030223;28;20583;-75
2023/10/09 01:48:48;;;;;;;4.82;1.20;;;7.60;97.00;;;;;;5029681;28;20128;-76
2023/10/09 01:51:17;;;;;;;;;;;7.60;97.10;;;;;;5031709;28;20439;-75
2023/10/09 01:53:43;;;;;;;4.45;1.45;;;7.70;97.00;;;;;;5031371;28;20043;-76
2023/10/09 01:56:14;;;;;;;9.57;1.75;;;7.70;97.00;;;;;;5030806;28;20108;-76
2023/10/09 01:58:41;;;;;;;4.28;1.52;;;7.80;96.70;;;;;;5031955;28;20035;-75
2023/10/09 02:01:06;;;;;;;4.15;1.58;;;7.80;96.70;;;;;;5032608;28;20435;-76
2023/10/09 02:03:36;;;;;;;;;;;7.70;96.90;;;;;;5030333;28;20646;-76
2023/10/09 02:06:17;;;;;;;3.15;1.23;;;7.70;97.00;;;;;;5029206;28;19909;-75
2023/10/09 02:08:49;;;;;;;3.55;1.35;;;7.80;96.80;;;;;;5030318;28;20053;-72
2023/10/09 02:11:24;;;;;;;5.25;1.40;;;7.80;96.60;;;;;;5030970;28;20032;-73
2023/10/09 02:14:01;;;;;;;5.57;1.60;;;7.80;96.50;;;;;;5029193;28;20026;-73
2023/10/09 02:16:29;;;;;;;3.53;1.02;;;7.80;96.50;;;;;;5029511;28;20040;-73
2023/10/09 02:18:56;;;;;;;4.03;1.65;;;7.80;96.50;;;;;;5029791;28;20053;-73
2023/10/09 02:21:39;;;;;;;4.53;1.08;;;7.70;96.40;;;;;;5028308;28;20407;-73
2023/10/09 02:24:26;;;;;;;3.53;1.23;;;7.60;96.50;;;;;;5029508;28;20033;-73
2023/10/09 02:29:17;;;;;;;;;;;7.50;97.40;;;;;;5029917;28;20033;-73
2023/10/09 02:31:46;;;;;;;6.38;1.42;;;7.60;97.30;;;;;;5028314;28;20378;-75
2023/10/09 02:34:12;;;;;;;2.95;0.93;;;7.70;96.50;;;;;;5029574;28;20017;-72
2023/10/09 02:36:41;;;;;;;;;;;7.80;96.10;;;;;;5029762;28;20029;-72
2023/10/09 02:42:06;;;;;;;3.65;1.17;;;7.60;96.20;;;;;;5045420;28;20386;-73
2023/10/09 02:44:39;;;;;;;9.73;1.25;;;7.60;96.60;;;;;;5049421;28;20100;-72
2023/10/09 02:47:11;;;;;;;5.63;1.05;;;7.50;97.00;;;;;;5049425;28;20024;-73
2023/10/09 02:49:39;;;;;;;3.67;1.10;;;7.50;97.50;;;;;;5048008;28;20115;-74
2023/10/09 02:52:07;;;;;;;4.45;1.30;;;7.50;97.60;;;;;;5046360;28;20029;-74
2023/10/09 02:54:41;;;;;;;3.75;0.90;;;7.50;97.30;;;;;;5032081;28;20120;-73
2023/10/09 02:57:07;;;;;;;2.35;0.80;;;7.40;97.70;;;;;;5040685;28;20030;-74
2023/10/09 02:59:34;;;;;;;4.25;1.23;;;7.40;97.80;;;;;;5033110;28;20029;-74
2023/10/09 03:02:00;;;;;;;4.57;1.05;;;7.40;97.50;;;;;;5049202;28;20029;-73
2023/10/09 03:04:30;;;;;;;;;;;7.40;96.90;;;;;;5049674;28;20106;-74
2023/10/09 03:07:00;;;;;;;2.17;0.82;;;7.30;97.30;;;;;;5047434;28;20380;-73
2023/10/09 03:09:27;;;;;;;2.95;0.80;;;7.10;97.60;;;;;;5047749;28;20033;-73
2023/10/09 03:11:54;;;;;;;2.83;0.93;;;7.10;97.60;;;;;;5047410;28;20104;-73
2023/10/09 03:14:26;;;;;;;5.55;1.50;;;7.10;97.40;;;;;;5047752;28;20055;-73
2023/10/09 03:16:58;;;;;;;4.15;1.00;;;7.00;97.50;;;;;;5047305;28;20056;-74
2023/10/09 03:19:28;;;;;;;3.22;1.17;;;7.00;97.70;;;;;;5047435;28;20493;-73
2023/10/09 03:21:57;;;;;;;4.18;1.48;;;6.90;98.20;;;;;;5048656;28;20033;-74
2023/10/09 03:24:24;;;;;;;4.65;1.50;;;7.00;98.10;;;;;;5050687;28;20033;-74
2023/10/09 03:26:55;;;;;;;3.50;1.08;;;7.00;98.20;;;;;;5054027;28;20021;-74
2023/10/09 03:29:21;;;;;;;3.33;1.00;;;6.90;98.10;;;;;;5054195;28;20039;-74
2023/10/09 03:31:47;;;;;;;;;;;6.80;98.30;;;;;;5056057;28;20021;-74
2023/10/09 03:34:13;;;;;;;4.60;1.13;;;6.90;98.60;;;;;;5055228;28;19962;-73
2023/10/09 03:36:38;;;;;;;;;;;6.80;98.50;;;;;;5054483;28;20056;-74
2023/10/09 03:39:33;;;;;;;5.10;1.40;;;6.60;99.10;;;;;;5055432;28;20296;-74
2023/10/09 03:41:58;;;;;;;3.85;1.15;;;6.70;98.80;;;;;;5039998;28;20025;-73
2023/10/09 03:44:28;;;;;;;;;;;6.80;98.40;;;;;;5035955;28;20147;-73
2023/10/09 03:46:53;;;;;;;3.75;1.13;;;6.80;98.50;;;;;;5040583;28;19954;-73
2023/10/09 03:49:23;;;;;;;;;;;6.70;98.80;;;;;;5046848;28;20029;-73
2023/10/09 03:51:50;;;;;;;3.65;1.00;;;6.70;99.30;;;;;;5048283;28;19916;-73
2023/10/09 03:54:17;;;;;;;3.63;1.20;;;6.80;99.30;;;;;;5054094;28;20036;-73
2023/10/09 03:56:43;;;;;;;2.78;0.80;;;7.00;98.70;;;;;;5055281;28;20021;-73
2023/10/09 03:59:10;;;;;;;;;;;7.00;98.60;;;;;;5055622;28;20033;-73
2023/10/09 04:01:39;;;;;;;4.32;1.15;;;6.90;99.10;;;;;;5053950;28;19936;-73
2023/10/09 04:04:10;;;;;;;4.00;1.02;;;7.00;98.80;;;;;;5053931;28;20045;-73
2023/10/09 04:06:37;;;;;;;2.83;1.10;;;7.20;98.30;;;;;;5055418;28;20044;-73
2023/10/09 04:12:00;;;;;;;2.47;0.90;;;7.00;98.10;;;;;;5042753;28;20037;-75
2023/10/09 04:14:33;;;;;;;2.45;0.90;;;7.10;98.30;;;;;;5054303;28;20493;-74
2023/10/09 04:17:32;;;;;;;3.58;1.38;;;7.20;98.30;;;;;;5054234;28;20064;-73
2023/10/09 04:19:48;;;;;;;5.63;1.88;;;7.30;98.40;;;;;;5055644;28;20029;-72
2023/10/09 04:22:27;;;;;;;;;;;7.40;98.40;;;;;;5055339;28;20386;-74
2023/10/09 04:24:53;;;;;;;3.08;1.00;;;7.50;98.40;;;;;;5040786;28;19912;-73
2023/10/09 04:27:26;;;;;;;3.70;1.88;;;7.50;98.00;;;;;;5055455;28;20036;-73
2023/10/09 04:29:54;;;;;;;3.13;1.70;;;7.60;97.80;;;;;;5055517;28;20021;-73
2023/10/09 04:32:19;;;;;;;5.95;2.10;;;7.70;97.90;;;;;;5054440;28;20124;-74
2023/10/09 04:34:48;;;;;;;;;;;7.70;98.00;;;;;;5059443;28;20466;-75
2023/10/09 04:39:47;;;;;;;5.90;1.88;;;7.70;98.30;;;;;;5052274;28;20039;-74
2023/10/09 04:42:59;;;;;;;2.65;1.25;;;7.70;98.60;;;;;;5051923;28;20084;-74
2023/10/09 04:47:35;;;;;;;;;;;7.70;99.40;;;;;;5051797;28;20048;-73
2023/10/09 04:52:54;;;;;;;3.40;1.17;;;7.80;99.60;;;;;;5052145;28;20486;-74
2023/10/09 04:55:24;;;;;;;;;;;7.90;99.50;;;;;;5047839;28;20029;-74
2023/10/09 04:58:09;;;;;;;2.08;0.80;;;7.90;99.90;;;;;;5032134;28;20425;-73
2023/10/09 05:03:10;;;;;;;;;;;8.00;99.90;;;;;;5033794;28;20111;-74
2023/10/09 05:08:28;;;;;;;3.25;1.60;;;8.00;99.90;;;;;;5031138;28;20427;-72
2023/10/09 05:16:18;;;;;;;3.80;1.10;;;8.20;99.90;;;;;;5031182;28;20029;-74
2023/10/09 05:18:56;;;;;;;3.70;1.45;;;8.20;99.90;;;;;;5030646;28;20095;-74
2023/10/09 05:21:36;;;;;;;4.63;1.52;;;8.30;99.90;;;;;;5029408;28;20034;-74
2023/10/09 05:24:44;;;;;;;2.38;1.02;;;8.40;99.90;;;;;;5030975;28;20044;-74
2023/10/09 05:27:17;;;;;;;6.75;1.55;;;8.40;99.90;;;;;;5029930;28;20553;-73
2023/10/09 05:30:41;;;;;;;3.50;1.35;;;8.50;99.60;;;;;;5030695;28;20036;-74
2023/10/09 05:32:48;;;;;;;6.93;1.48;;;8.50;99.50;;;;;;5038388;28;20248;-73
2023/10/09 05:35:19;;;;;;;4.38;1.15;;;8.70;99.50;;;;;;5030597;28;20023;-75
2023/10/09 05:37:45;;;;;;;3.42;0.98;;;8.70;98.50;;;;;;5030468;28;20036;-73
2023/10/09 05:42:44;;;;;;;3.92;1.80;;;8.80;99.60;;;;;;5030453;28;19917;-74
2023/10/09 06:06:42;;;;;;;5.32;2.22;;;9.40;99.90;;;;;;5030235;28;20037;-73
2023/10/09 06:11:55;;;;;;;9.32;1.70;;;9.50;99.90;;;;;;5030291;28;20025;-75
2023/10/09 06:14:45;;;;;;;3.20;1.23;;;9.60;99.90;;;;;;5030182;28;20017;-74
2023/10/09 06:19:48;;;;;;;4.65;1.15;;;9.80;99.90;;;;;;5029653;28;20025;-74
2023/10/09 06:25:17;;;;;;;3.17;1.00;;;9.60;99.90;;;;;;5027049;28;20065;-74
2023/10/09 06:35:31;;;;;;;5.57;1.88;;;9.90;96.40;;;;;;5029564;28;19912;-74
2023/10/09 06:45:54;;;;;;;5.75;0.80;;;10.20;92.70;;;;;;5033703;28;20029;-76
2023/10/09 06:56:23;;;;;;;;;;;10.70;90.90;;;;;;5049586;28;20025;-74
2023/10/09 06:58:54;;;;;;;2.78;1.00;;;10.90;89.30;;;;;;5048359;28;19905;-75
2023/10/09 07:01:28;;;;;;;6.25;0.60;;;11.00;85.60;;;;;;5038507;28;20029;-75
2023/10/09 07:04:10;;;;;;;3.22;0.90;;;11.00;84.90;;;;;;5038989;28;20043;-73
2023/10/09 07:17:15;;;;;;;3.22;0.95;;;11.00;81.20;;;;;;5026828;28;20053;-74
2023/10/09 07:20:09;;;;;;;2.45;0.60;;;11.00;80.60;;;;;;5026608;28;20040;-74
2023/10/09 07:22:39;;;;;;;2.38;0.65;;;10.90;79.80;;;;;;5028533;28;20171;-73
2023/10/09 07:25:15;;;;;;;2.83;0.70;;;10.80;80.50;;;;;;5027307;28;20497;-74
2023/10/09 07:27:44;;;;;;;3.03;0.70;;;10.80;80.80;;;;;;5027378;28;20033;-75
2023/10/09 07:35:48;;;;;;;3.17;0.73;;;11.00;77.80;;;;;;5028561;28;20087;-75
2023/10/09 07:38:28;;;;;;;2.53;0.70;;;11.00;77.30;;;;;;5027416;28;20403;-75
2023/10/09 07:41:45;;;;;;;3.50;0.80;;;11.10;77.10;;;;;;5027221;28;20030;-75
2023/10/09 07:43:50;;;;;;;;;;;11.20;77.10;;;;;;5028041;28;20053;-75
2023/10/09 07:46:30;;;;;;;3.50;1.38;;;11.30;77.10;;;;;;5027221;28;19913;-75
2023/10/09 07:49:08;;;;;;;1.75;0.60;;;11.30;77.10;;;;;;5028318;28;20513;-74
2023/10/09 07:51:37;;;;;;;2.97;0.80;;;11.30;76.00;;;;;;5028543;28;20482;-74
2023/10/09 07:54:09;;;;;;;2.65;1.00;;;11.30;75.70;;;;;;5028490;28;20127;-74
2023/10/09 07:56:43;;;;;;;12.13;0.80;;;11.30;75.20;;;;;;5028269;28;20021;-75
2023/10/09 07:59:11;;;;;;;5.78;0.95;;;11.30;75.10;;;;;;5027168;28;20025;-76
2023/10/09 08:02:02;;;;;;;3.15;1.02;;;11.40;74.00;;;;;;5028236;28;20025;-74
2023/10/09 08:04:37;;;;;;;2.42;0.63;;;11.50;72.70;;;;;;5028342;28;20041;-74
2023/10/09 08:07:25;;;;;;;4.07;0.70;;;11.50;70.80;;;;;;5028433;28;20905;-75
2023/10/09 08:11:38;;;;;;;7.22;0.90;;;11.60;69.00;;;;;;5028255;28;20029;-75
2023/10/09 08:18:09;;;;;;;3.35;0.80;;;11.70;69.20;;;;;;5031878;28;20050;-75
2023/10/09 08:23:33;;;;;;;2.40;0.70;;;11.70;69.50;;;;;;5032059;28;20039;-74
2023/10/09 08:26:14;;;;;;;2.72;0.70;;;11.70;69.20;;;;;;5031813;28;20486;-74
2023/10/09 08:28:45;;;;;;;7.57;0.70;;;11.80;69.00;;;;;;5031735;28;20128;-75
2023/10/09 08:31:45;;;;;;;1.67;0.50;;;11.80;67.80;;;;;;5031722;28;20155;-74
2023/10/09 08:34:26;;;;;;;2.95;0.90;;;11.90;67.90;;;;;;5031666;28;20036;-75
2023/10/09 08:36:53;;;;;;;2.15;0.60;;;12.00;67.10;;;;;;5031676;28;20040;-73
2023/10/09 08:39:25;;;;;;;2.90;0.82;;;12.00;66.40;;;;;;5030382;28;20025;-74
2023/10/09 08:41:52;;;;;;;2.20;0.70;;;12.10;66.10;;;;;;5031703;28;20083;-75
2023/10/09 08:44:22;;;;;;;1.98;0.73;;;12.20;65.60;;;;;;5031506;28;20064;-74
2023/10/09 08:46:50;;;;;;;6.75;1.00;;;12.20;65.90;;;;;;5031432;28;20024;-74
2023/10/09 08:49:17;;;;;;;5.25;0.63;;;12.30;66.50;;;;;;5031256;28;20479;-74
2023/10/09 08:51:46;;;;;;;3.45;0.70;;;12.10;64.20;;;;;;5030128;28;20765;-75
2023/10/09 08:54:14;;;;;;;3.85;0.75;;;12.10;64.40;;;;;;5031341;28;20033;-75
2023/10/09 08:56:49;;;;;;;2.63;0.80;;;12.00;64.90;;;;;;5030002;28;20031;-74
2023/10/09 08:59:18;;;;;;;2.35;0.63;;;12.00;65.60;;;;;;5031276;28;20028;-74
2023/10/09 09:01:49;;;;;;;1.65;0.60;;;12.00;66.00;;;;;;5031818;28;20033;-73
2023/10/09 09:04:35;;;;;;;2.95;0.60;;;12.00;66.50;;;;;;5030132;28;20042;-75
2023/10/09 09:07:02;;;;;;;2.60;0.70;;;12.00;66.50;;;;;;5030055;28;20040;-75
2023/10/09 09:09:30;;;;;;;2.63;0.60;;;12.10;66.20;;;;;;5029835;28;20657;-75
2023/10/09 09:11:56;;;;;;;3.00;0.70;;;12.10;65.80;;;;;;5031015;28;20029;-74
2023/10/09 09:14:36;;;;;;;;;;;12.20;65.30;;;;;;5030022;28;20021;-74
2023/10/09 09:17:04;;;;;;;1.65;0.65;;;12.30;63.70;;;;;;5030631;28;19921;-73
2023/10/09 09:19:37;;;;;;;5.40;1.00;;;12.30;63.70;;;;;;5030903;28;20071;-74
2023/10/09 09:22:12;;;;;;;4.13;0.95;;;12.40;63.20;;;;;;5030522;28;20044;-74
2023/10/09 09:24:39;;;;;;;2.92;0.80;;;12.50;62.20;;;;;;5030856;28;20041;-73
2023/10/09 09:27:18;;;;;;;3.42;0.80;;;12.70;61.00;;;;;;5030844;28;20041;-74
2023/10/09 09:29:52;;;;;;;5.78;0.65;;;12.60;61.40;;;;;;5031129;28;20025;-74
2023/10/09 09:32:35;;;;;;;5.00;0.82;;;12.60;61.00;;;;;;5030778;28;20029;-74
2023/10/09 09:35:03;;;;;;;3.17;0.88;;;12.60;61.90;;;;;;5030723;28;20025;-74
2023/10/09 09:37:38;;;;;;;2.20;0.77;;;12.50;61.90;;;;;;5029092;28;20035;-75
2023/10/09 09:43:06;;;;;;;5.60;0.80;;;12.50;61.60;;;;;;5028846;28;20037;-75
2023/10/09 09:45:36;;;;;;;7.47;1.15;;;12.50;62.00;;;;;;5030671;28;20025;-73
2023/10/09 09:48:13;;;;;;;2.35;0.90;;;12.50;61.30;;;;;;5029310;28;20075;-74
2023/10/09 09:50:44;;;;;;;5.38;0.70;;;12.50;60.60;;;;;;5030364;28;20036;-74
2023/10/09 09:53:16;;;;;;;2.00;0.75;;;12.40;60.90;;;;;;5030455;28;20033;-75
2023/10/09 09:55:57;;;;;;;5.05;0.95;;;12.40;61.20;;;;;;5030333;28;20072;-75
2023/10/09 09:58:32;;;;;;;2.10;0.82;;;12.40;61.50;;;;;;5029036;28;20437;-73
2023/10/09 10:01:25;;;;;;;8.75;0.95;;;12.40;62.00;;;;;;5028709;28;20022;-73
2023/10/09 10:03:59;;;;;;;4.18;1.17;;;12.50;60.70;;;;;;5029734;28;20049;-75
2023/10/09 10:06:29;;;;;;;11.70;1.98;;;12.50;61.40;;;;;;5029972;28;20017;-73
2023/10/09 10:08:54;;;;;;;7.05;1.33;;;12.40;61.00;;;;;;5029846;28;20034;-73
2023/10/09 10:11:40;;;;;;;;;;;12.40;60.20;;;;;;5030286;28;20018;-73
2023/10/09 10:14:10;;;;;;;5.50;1.60;;;12.40;60.90;;;;;;5028601;28;19909;-74
2023/10/09 10:17:16;;;;;;;4.28;1.40;;;12.30;61.40;;;;;;5029696;28;20038;-74
2023/10/09 10:22:50;;;;;;;3.65;1.40;;;12.50;62.10;;;;;;5029971;28;20080;-73
2023/10/09 10:25:32;;;;;;;5.00;2.25;;;12.50;62.00;;;;;;5029643;28;20032;-75
2023/10/09 10:28:38;;;;;;;16.58;2.38;;;12.80;60.70;;;;;;5028263;28;20033;-74
2023/10/09 10:31:08;;;;;;;6.03;1.55;;;12.70;61.10;;;;;;5029733;28;20172;-73
2023/10/09 10:33:55;;;;;;;4.70;1.10;;;12.90;61.50;;;;;;5029035;28;20080;-73
2023/10/09 10:36:26;;;;;;;6.85;1.40;;;13.10;59.70;;;;;;5029637;28;20029;-74
2023/10/09 10:41:56;;;;;;;4.32;1.10;;;13.10;61.80;;;;;;5031897;28;20026;-74
2023/10/09 10:44:38;;;;;;;6.15;1.55;;;13.10;63.30;;;;;;5035614;28;20695;-74
2023/10/09 10:47:24;;;;;;;3.25;0.73;;;13.30;63.60;;;;;;5029272;28;20099;-74
2023/10/09 10:49:58;;;;;;;10.13;1.67;;;13.60;59.40;;;;;;5027780;28;20033;-75
2023/10/09 10:52:44;;;;;;;4.53;0.70;;;13.60;59.20;;;;;;5028864;28;20263;-74
2023/10/09 10:55:48;;;;;;;3.15;1.08;;;13.40;60.40;;;;;;5032160;28;20063;-74
2023/10/09 10:58:23;;;;;;;3.05;0.80;;;13.40;61.00;;;;;;5048910;28;20029;-73
2023/10/09 11:03:35;;;;;;;1.83;0.70;;;13.40;60.30;;;;;;5049079;28;20482;-74
2023/10/09 11:06:15;;;;;;;3.53;1.50;;;13.10;61.20;;;;;;5041053;28;20035;-74
2023/10/09 11:08:57;;;;;;;3.95;1.08;;;13.10;61.50;;;;;;5033241;28;20031;-75
2023/10/09 11:11:23;;;;;;;6.30;0.90;;;12.90;62.90;;;;;;5042569;28;20067;-74
2023/10/09 11:13:58;;;;;;;17.45;2.08;;;12.90;61.30;;;;;;5047903;28;20374;-77
2023/10/09 11:19:32;;;;;;;7.53;0.90;;;13.00;60.00;;;;;;5064462;28;20082;-75
2023/10/09 11:24:34;;;;;;;11.35;0.93;;;12.80;60.80;;;;;;5046225;28;20049;-75
2023/10/09 11:27:05;;;;;;;3.03;0.80;;;12.90;59.10;;;;;;5035125;28;20021;-74
2023/10/09 11:32:18;;;;;;;4.55;1.80;;;12.90;60.30;;;;;;5028886;28;20056;-76
2023/10/09 11:34:54;;;;;;;7.15;0.98;;;12.90;61.10;;;;;;5028833;28;20029;-74
2023/10/09 11:39:57;;;;;;;2.60;0.77;;;12.90;61.20;;;;;;5048527;28;20044;-73
2023/10/09 11:45:25;;;;;;;1.90;0.73;;;13.00;59.60;;;;;;5037764;28;20031;-74
2023/10/09 11:47:58;;;;;;;2.63;0.73;;;13.00;59.90;;;;;;5051380;28;20048;-75
2023/10/09 11:50:43;;;;;;;9.52;2.10;;;12.90;60.90;;;;;;5052603;28;20028;-75
2023/10/09 11:53:54;;;;;;;13.90;1.90;;;12.90;62.80;;;;;;5041789;28;20516;-74
2023/10/09 11:56:00;;;;;;;7.47;0.90;;;12.80;63.10;;;;;;5051941;28;20086;-75
2023/10/09 11:58:26;;;;;;;4.43;1.10;;;12.90;61.60;;;;;;5052529;28;20063;-74
2023/10/09 12:01:05;;;;;;;9.25;0.80;;;13.00;65.20;;;;;;5049308;28;20025;-75
2023/10/09 12:03:32;;;;;;;2.92;0.63;;;12.90;64.70;;;;;;5045319;28;20116;-75
2023/10/09 12:06:05;;;;;;;3.15;0.80;;;12.90;67.30;;;;;;5032443;28;20030;-76
2023/10/09 12:08:34;;;;;;;5.85;1.98;;;12.80;66.80;;;;;;5047640;28;20030;-75
2023/10/09 12:11:08;;;;;;;9.43;1.80;;;12.70;68.90;;;;;;5050929;28;20535;-72
2023/10/09 12:13:33;;;;;;;5.53;1.63;;;12.70;70.10;;;;;;5041507;28;20030;-81
2023/10/09 12:15:59;;;;;;;;;;;12.70;69.70;;;;;;5034706;28;20036;-76
2023/10/09 12:18:25;;;;;;;10.73;1.83;;;12.70;70.90;;;;;;5039815;28;19921;-75
2023/10/09 12:20:51;;;;;;;;;;;12.60;69.10;;;;;;5030991;28;20040;-76
2023/10/09 12:23:20;;;;;;;6.13;1.52;;;12.70;70.20;;;;;;5031336;28;19975;-82
2023/10/09 12:25:51;;;;;;;6.72;1.20;;;12.70;73.00;;;;;;5030494;28;20025;-75
2023/10/09 12:28:20;;;;;;;5.88;1.13;;;12.70;71.80;;;;;;5041427;28;20079;-76
2023/10/09 12:30:50;;;;;;;4.07;0.93;;;12.80;70.80;;;;;;5031851;28;20071;-76
2023/10/09 12:33:19;;;;;;;7.50;1.95;;;12.80;72.40;;;;;;5037286;28;20581;-76
2023/10/09 12:35:47;;;;;;;4.13;1.30;;;12.60;69.80;;;;;;5037989;28;20066;-74
2023/10/09 12:38:18;;;;;;;11.75;4.53;;;12.50;71.70;;;;;;5034258;28;20029;-75
2023/10/09 12:40:50;;;;;;;42.00;17.77;;;12.50;71.70;;;;;;5031986;28;20512;-75
2023/10/09 12:43:19;;;;;;;12.77;4.20;;;12.50;72.10;;;;;;5037642;28;20429;-74
2023/10/09 12:45:46;;;;;;;6.60;2.67;;;12.50;70.10;;;;;;5051566;28;20045;-75
2023/10/09 12:48:14;;;;;;;7.18;2.47;;;12.50;70.50;;;;;;5050200;28;20056;-74
2023/10/09 12:50:44;;;;;;;8.75;2.40;;;12.40;71.00;;;;;;5051464;28;20516;-74
2023/10/09 12:53:10;;;;;;;8.18;1.80;;;12.40;71.50;;;;;;5051388;28;20112;-75
2023/10/09 12:55:40;;;;;;;5.47;1.23;;;12.40;70.50;;;;;;5051359;28;20028;-74
2023/10/09 12:58:14;;;;;;;7.00;1.98;;;12.30;71.50;;;;;;5048680;28;20021;-74
2023/10/09 13:00:49;;;;;;;3.25;1.33;;;12.20;71.80;;;;;;5041100;28;20039;-75
2023/10/09 13:03:16;;;;;;;6.85;1.50;;;12.20;71.70;;;;;;5031378;28;20038;-73
2023/10/09 13:05:56;;;;;;;4.35;1.40;;;12.30;69.00;;;;;;5031250;28;20026;-79
2023/10/09 13:08:34;;;;;;;6.55;1.10;;;12.30;68.10;;;;;;5031308;28;20423;-77
2023/10/09 13:11:16;;;;;;;13.05;1.80;;;12.30;68.10;;;;;;5031214;28;20029;-74
2023/10/09 13:13:43;;;;;;;6.53;3.20;;;12.20;69.20;;;;;;5031185;28;20025;-75
2023/10/09 13:16:22;;;;;;;8.38;1.80;;;12.30;69.10;;;;;;5029484;28;20021;-73
2023/10/09 13:18:49;;;;;;;8.15;4.65;;;12.50;68.80;;;;;;5030809;28;20055;-75
2023/10/09 13:21:26;;;;;;;9.15;4.63;;;12.50;68.80;;;;;;5031000;28;20099;-75
2023/10/09 13:23:54;;;;;;;4.72;1.73;;;12.50;68.90;;;;;;5031099;28;20068;-74
2023/10/09 13:26:30;;;;;;;5.35;0.85;;;12.40;68.30;;;;;;5029648;28;20557;-74
2023/10/09 13:28:57;;;;;;;4.10;1.45;;;12.30;67.90;;;;;;5031037;28;20052;-74
2023/10/09 13:31:27;;;;;;;7.93;1.90;;;12.30;68.70;;;;;;5029392;28;20091;-74
2023/10/09 13:33:54;;;;;;;5.75;2.10;;;12.10;68.60;;;;;;5030905;28;20112;-75
2023/10/09 13:36:31;;;;;;;9.60;2.30;;;12.20;69.00;;;;;;5030731;28;20064;-75
2023/10/09 13:41:47;;;;;;;8.35;2.38;;;12.40;69.30;;;;;;5031008;28;20022;-75
2023/10/09 13:44:12;;;;;;;28.25;15.82;;;12.50;67.50;;;;;;5030578;28;20502;-74
2023/10/09 13:46:41;;;;;;;;;;;12.40;68.60;;;;;;5030845;28;20028;-74
2023/10/09 13:49:14;;;;;;;7.95;3.80;;;12.30;67.70;;;;;;5030082;28;19905;-75
2023/10/09 13:51:46;;;;;;;5.32;2.10;;;12.30;66.50;;;;;;5036558;28;20029;-76
2023/10/09 13:54:28;;;;;;;9.77;2.22;;;12.20;66.40;;;;;;5049115;28;20155;-75
2023/10/09 13:56:54;;;;;;;4.78;1.88;;;12.10;66.70;;;;;;5035588;28;20025;-75
2023/10/09 13:59:25;;;;;;;;;;;12.00;67.50;;;;;;5029635;28;20030;-76
2023/10/09 14:01:54;;;;;;;7.30;1.38;;;11.80;68.30;;;;;;5030233;28;19938;-74
2023/10/09 14:04:20;;;;;;;9.10;1.10;;;11.90;67.40;;;;;;5030005;28;20040;-75
2023/10/09 14:06:47;;;;;;;;;;;12.00;67.40;;;;;;5029964;28;20026;-74
2023/10/09 14:09:27;;;;;;;51.60;23.48;;;11.80;66.10;;;;;;5044558;28;19914;-74
2023/10/09 14:12:07;;;;;;;260.40;107.88;;;11.80;66.90;;;;;;5028680;28;20498;-74
2023/10/09 14:14:49;;;;;;;53.70;20.83;;;11.90;67.60;;;;;;5028655;28;20030;-74
2023/10/09 14:17:25;;;;;;;146.13;69.25;;;11.90;67.40;;;;;;5028666;28;20057;-73
2023/10/09 14:20:00;;;;;;;77.20;37.17;;;12.00;67.50;;;;;;5029887;28;20544;-74
2023/10/09 14:22:26;;;;;;;10.85;3.30;;;12.10;68.40;;;;;;5039279;28;20224;-74
2023/10/09 14:24:56;;;;;;;;;;;12.10;69.10;;;;;;5050099;28;20029;-74
2023/10/09 14:27:26;;;;;;;14.73;6.00;;;12.10;67.10;;;;;;5048698;28;19904;-74
2023/10/09 14:29:56;;;;;;;12.02;4.50;;;12.10;66.80;;;;;;5048269;28;20025;-74
2023/10/09 14:32:28;;;;;;;4.70;2.03;;;12.10;67.40;;;;;;5049535;28;20029;-74
2023/10/09 14:34:55;;;;;;;5.20;1.83;;;12.10;67.40;;;;;;5048235;28;20029;-73
2023/10/09 14:37:21;;;;;;;3.22;1.17;;;12.10;67.90;;;;;;5049561;28;20078;-74
2023/10/09 14:39:48;;;;;;;;;;;12.10;67.80;;;;;;5043691;28;20111;-75
2023/10/09 14:42:17;;;;;;;9.75;1.25;;;11.90;67.60;;;;;;5043727;28;20446;-74
2023/10/09 14:44:45;;;;;;;3.95;1.35;;;12.00;68.00;;;;;;5049165;28;20036;-74
2023/10/09 14:47:11;;;;;;;6.93;0.95;;;12.10;68.20;;;;;;5047955;28;20417;-75
2023/10/09 14:49:43;;;;;;;;;;;12.20;68.40;;;;;;5048102;28;20413;-74
2023/10/09 14:52:10;;;;;;;6.63;1.77;;;12.10;69.00;;;;;;5047899;28;20244;-73
2023/10/09 14:54:39;;;;;;;21.70;2.28;;;12.00;69.30;;;;;;5049146;28;20053;-74
2023/10/09 14:57:05;;;;;;;7.28;2.55;;;12.00;68.50;;;;;;5047633;28;20025;-78
2023/10/09 14:59:34;;;;;;;4.93;1.70;;;12.00;68.70;;;;;;5049254;28;20021;-74
2023/10/09 15:02:01;;;;;;;8.43;1.85;;;12.00;69.00;;;;;;5047840;28;20035;-73
2023/10/09 15:04:26;;;;;;;6.38;1.90;;;11.90;70.30;;;;;;5049047;28;20072;-75
2023/10/09 15:06:52;;;;;;;;;;;12.00;71.10;;;;;;5049445;28;20056;-79
2023/10/09 15:09:28;;;;;;;6.32;1.88;;;12.00;71.00;;;;;;5047819;28;20678;-74
2023/10/09 15:11:54;;;;;;;8.17;1.40;;;12.00;71.90;;;;;;5047767;28;20029;-74
2023/10/09 15:14:20;;;;;;;11.50;1.50;;;11.80;70.80;;;;;;5048702;28;20166;-75
2023/10/09 15:16:46;;;;;;;;;;;11.80;71.40;;;;;;5047831;28;20115;-74
2023/10/09 15:19:13;;;;;;;4.93;1.10;;;11.80;71.80;;;;;;5047616;28;19916;-75
2023/10/09 15:21:45;;;;;;;17.75;3.30;;;11.80;72.00;;;;;;5047279;28;20033;-75
2023/10/09 15:24:15;;;;;;;8.13;3.05;;;11.60;72.30;;;;;;5048784;28;20036;-76
2023/10/09 15:26:52;;;;;;;5.68;1.52;;;11.50;72.70;;;;;;5047539;28;20021;-74
2023/10/09 15:29:23;;;;;;;;;;;11.40;73.10;;;;;;5048715;28;20033;-74
2023/10/09 15:31:52;;;;;;;8.30;2.83;;;11.50;73.40;;;;;;5039666;28;19955;-74
2023/10/09 15:34:20;;;;;;;10.02;1.30;;;11.50;73.30;;;;;;5027332;28;20121;-74
2023/10/09 15:36:49;;;;;;;9.93;1.90;;;11.50;73.50;;;;;;5027979;28;20033;-75
2023/10/09 15:39:19;;;;;;;5.45;1.92;;;11.60;73.30;;;;;;5027065;28;20028;-74
2023/10/09 15:41:45;;;;;;;6.32;2.35;;;11.60;73.40;;;;;;5026335;28;20128;-74
2023/10/09 15:44:13;;;;;;;6.55;1.80;;;11.40;74.50;;;;;;5027129;28;20030;-75
2023/10/09 15:46:39;;;;;;;16.77;2.08;;;11.30;73.80;;;;;;5028437;28;20021;-74
2023/10/09 15:49:07;;;;;;;;;;;11.30;73.90;;;;;;5028939;28;20040;-75
2023/10/09 15:51:33;;;;;;;5.68;1.75;;;11.30;73.40;;;;;;5027394;28;19912;-75
2023/10/09 15:53:58;;;;;;;;;;;11.20;73.60;;;;;;5027990;28;20025;-75